Time;durP1;ratioP1;P1;durP2;ratioP2;P2;SDS_P1;SDS_P2;PMS_P1;PMS_P2;Temp;Humidity;BMP_temperature;BMP_pressure;BME280_temperature;BME280_humidity;BME280_pressure;Samples;Min_cycle;Max_cycle;Signal;HPM_P1;HPM_P2
2023/11/20 00:02:23;;;;;;;;;;;13.60;69.30;;;9.32;100.00;95600.19;4971659;28;20020;-53
2023/11/20 00:04:49;;;;;;;;;;;13.60;69.40;;;9.31;100.00;95600.44;4970685;28;20420;-52
2023/11/20 00:07:15;;;;;;;;;;;13.60;69.30;;;9.33;100.00;95585.84;4968331;28;19917;-56
2023/11/20 00:09:41;;;;;;;;;;;13.60;69.20;;;9.37;99.92;95586.13;4971426;28;20399;-55
2023/11/20 00:12:08;;;;;;;;;;;13.60;69.20;;;9.35;100.00;95589.06;4968736;28;20021;-52
2023/11/20 00:14:34;;;;;;;;;;;13.60;69.20;;;9.35;99.58;95589.06;4970938;28;19925;-53
2023/11/20 00:17:00;;;;;;;;;;;13.60;69.10;;;9.38;98.86;95583.22;4971320;28;19924;-52
2023/11/20 00:19:27;;;;;;;;;;;13.60;68.90;;;9.43;98.23;95585.94;4968319;28;19959;-52
2023/11/20 00:21:53;;;;;;;;;;;13.60;68.90;;;9.46;98.29;95582.75;4971236;28;19916;-57
2023/11/20 00:24:18;;;;;;;;;;;13.60;68.70;;;9.44;98.13;95581.41;4969788;28;20254;-55
2023/11/20 00:26:44;;;;;;;;;;;13.70;68.70;;;9.41;98.41;95577.41;4966225;28;19917;-56
2023/11/20 00:29:10;;;;;;;;;;;13.60;68.50;;;9.37;98.83;95576.31;4971645;28;19914;-55
2023/11/20 00:31:36;;;;;;;;;;;13.60;68.40;;;9.38;98.82;95571.78;4968713;28;20261;-55
2023/11/20 00:34:03;;;;;;;;;;;13.60;68.30;;;9.40;99.14;95577.63;4971051;28;19910;-55
2023/11/20 00:36:29;;;;;;;;;;;13.70;68.40;;;9.37;99.25;95576.31;4967823;28;19917;-54
2023/11/20 00:38:56;;;;;;;;;;;13.70;68.30;;;9.38;100.00;95572.59;4971535;28;19909;-57
2023/11/20 00:41:21;;;;;;;;;;;13.70;68.30;;;9.35;100.00;95578.41;4970916;28;20400;-54
2023/11/20 00:43:47;;;;;;;;;;;13.60;68.20;;;9.25;100.00;95581.81;4968480;28;19920;-55
2023/11/20 00:46:13;;;;;;;;;;;13.60;68.10;;;9.21;100.00;95590.53;4971026;28;20372;-56
2023/11/20 00:48:39;;;;;;;;;;;13.60;68.10;;;9.18;100.00;95585.72;4967577;28;19910;-55
2023/11/20 00:51:05;;;;;;;;;;;13.60;68.10;;;9.17;100.00;95576.16;4963206;28;19960;-54
2023/11/20 00:53:31;;;;;;;;;;;13.50;68.10;;;9.15;100.00;95584.41;4969966;28;19920;-54
2023/11/20 00:55:57;;;;;;;;;;;13.50;68.10;;;9.14;100.00;95585.44;4967300;28;19910;-53
2023/11/20 00:58:23;;;;;;;;;;;13.50;68.10;;;9.13;100.00;95594.47;4974707;28;19956;-55
2023/11/20 01:00:51;;;;;;;;;;;13.50;68.10;;;9.16;100.00;95590.53;4970888;28;20013;-55
2023/11/20 01:03:17;;;;;;;;;;;13.50;68.10;;;9.16;100.00;95586.00;4974597;28;19920;-57
2023/11/20 01:05:43;;;;;;;;;;;13.50;68.10;;;9.17;100.00;95584.13;4970399;28;19939;-55
2023/11/20 01:08:09;;;;;;;;;;;13.50;68.10;;;9.16;100.00;95580.69;4966423;28;19910;-57
2023/11/20 01:10:35;;;;;;;;;;;13.50;68.10;;;9.15;100.00;95583.59;4970410;28;19914;-59
2023/11/20 01:13:01;;;;;;;;;;;13.40;68.00;;;9.11;100.00;95585.94;4971737;28;19910;-59
2023/11/20 01:15:29;;;;;;;;;;;13.40;67.90;;;9.10;100.00;95576.38;4948107;28;19914;-59
2023/11/20 01:17:56;;;;;;;;;;;13.40;67.80;;;9.11;100.00;95580.63;4970995;28;20008;-59
2023/11/20 01:20:22;;;;;;;;;;;13.40;67.90;;;9.11;99.81;95572.66;4956469;28;19917;-59
2023/11/20 01:22:48;;;;;;;;;;;13.40;67.80;;;9.13;99.77;95573.22;4974158;28;19914;-59
2023/11/20 01:25:14;;;;;;;;;;;13.40;67.70;;;9.13;99.27;95572.44;4964710;28;19910;-59
2023/11/20 01:27:39;;;;;;;;;;;13.40;67.70;;;9.14;100.00;95571.38;4973779;28;20374;-58
2023/11/20 01:30:09;;;;;;;;;;;13.50;67.80;;;9.10;99.72;95571.06;4970766;28;20380;-56
2023/11/20 01:32:36;;;;;;;;;;;13.40;67.60;;;9.12;99.74;95568.16;4974425;28;19916;-59
2023/11/20 01:35:02;;;;;;;;;;;13.40;67.60;;;9.07;100.00;95565.47;4974684;28;19910;-58
2023/11/20 01:37:28;;;;;;;;;;;13.40;67.60;;;9.02;99.68;95567.03;4971260;28;19909;-56
2023/11/20 01:39:54;;;;;;;;;;;13.40;67.50;;;9.04;99.46;95575.53;4974604;28;19921;-59
2023/11/20 01:42:20;;;;;;;;;;;13.40;67.50;;;9.05;99.77;95576.34;4970694;28;19910;-59
2023/11/20 01:44:45;;;;;;;;;;;13.40;67.50;;;9.01;100.00;95572.59;4974523;28;19917;-58
2023/11/20 01:47:12;;;;;;;;;;;13.30;67.40;;;8.98;100.00;95567.78;4957201;28;20424;-59
2023/11/20 01:49:41;;;;;;;;;;;13.30;67.40;;;8.98;100.00;95573.91;4971936;28;21079;-59
2023/11/20 01:52:09;;;;;;;;;;;13.30;67.40;;;8.98;100.00;95567.78;4957648;28;20008;-58
2023/11/20 01:54:36;;;;;;;;;;;13.30;67.40;;;8.93;100.00;95565.09;4965407;28;19910;-56
2023/11/20 01:57:05;;;;;;;;;;;13.30;67.50;;;8.91;100.00;95569.88;4968730;28;20004;-59
2023/11/20 01:59:31;;;;;;;;;;;13.30;67.40;;;8.91;100.00;95559.25;4954302;28;19910;-59
2023/11/20 02:01:59;;;;;;;;;;;13.30;67.50;;;8.89;100.00;95566.66;4949464;28;20044;-57
2023/11/20 02:04:28;;;;;;;;;;;13.30;67.40;;;8.85;100.00;95563.72;4956985;28;19917;-58
2023/11/20 02:06:54;;;;;;;;;;;13.20;67.40;;;8.83;100.00;95557.84;4951887;28;19925;-59
2023/11/20 02:09:20;;;;;;;;;;;13.20;67.40;;;8.84;100.00;95546.19;4974048;28;19914;-59
2023/11/20 02:11:46;;;;;;;;;;;13.20;67.50;;;8.89;100.00;95548.06;4971405;28;19913;-56
2023/11/20 02:14:15;;;;;;;;;;;13.20;67.60;;;8.88;100.00;95554.44;4973954;28;20443;-59
2023/11/20 02:16:41;;;;;;;;;;;13.20;67.50;;;8.89;100.00;95545.41;4972027;28;19910;-59
2023/11/20 02:19:14;;;;;;;;;;;13.20;67.60;;;8.87;100.00;95547.50;4972090;28;19967;-59
2023/11/20 02:21:42;;;;;;;;;;;13.20;67.60;;;8.84;100.00;95548.84;4971678;28;19914;-57
2023/11/20 02:24:10;;;;;;;;;;;13.20;67.60;;;8.84;100.00;95551.50;4971275;28;20012;-58
2023/11/20 02:26:59;;;;;;;;;;;13.20;67.70;;;8.82;100.00;95552.81;4950384;28;19933;-57
2023/11/20 02:29:31;;;;;;;;;;;13.20;67.60;;;8.85;100.00;95552.28;4956823;28;20288;-54
2023/11/20 02:31:57;;;;;;;;;;;13.20;67.60;;;8.84;100.00;95551.50;4973556;28;19924;-59
2023/11/20 02:34:24;;;;;;;;;;;13.20;67.70;;;8.81;100.00;95557.31;4972356;28;19909;-59
2023/11/20 02:36:50;;;;;;;;;;;13.20;67.70;;;8.79;100.00;95562.06;4963598;28;19910;-58
2023/11/20 02:39:15;;;;;;;;;;;13.10;67.60;;;8.80;100.00;95561.00;4973308;28;19916;-59
2023/11/20 02:41:43;;;;;;;;;;;13.10;67.70;;;8.76;100.00;95560.72;4955026;28;19914;-59
2023/11/20 02:44:09;;;;;;;;;;;13.10;67.70;;;8.74;100.00;95556.72;4973531;28;19909;-58
2023/11/20 02:46:35;;;;;;;;;;;13.10;67.80;;;8.67;100.00;95564.09;4973361;28;19910;-59
2023/11/20 02:49:01;;;;;;;;;;;13.10;67.80;;;8.64;100.00;95556.63;4972842;28;20008;-58
2023/11/20 02:51:27;;;;;;;;;;;13.00;67.70;;;8.60;100.00;95563.50;4956151;28;20415;-59
2023/11/20 02:53:54;;;;;;;;;;;13.00;67.80;;;8.54;100.00;95555.47;4972345;28;20890;-56
2023/11/20 02:56:19;;;;;;;;;;;13.00;67.80;;;8.52;100.00;95557.59;4973038;28;20001;-54
2023/11/20 02:58:45;;;;;;;;;;;13.00;68.00;;;8.51;100.00;95561.28;4973316;28;20342;-58
2023/11/20 03:01:11;;;;;;;;;;;12.90;67.80;;;8.45;100.00;95559.66;4972074;28;19909;-57
2023/11/20 03:03:37;;;;;;;;;;;12.90;67.90;;;8.44;100.00;95557.25;4973037;28;19914;-58
2023/11/20 03:06:03;;;;;;;;;;;12.90;68.00;;;8.40;100.00;95562.28;4971880;28;20012;-59
2023/11/20 03:08:29;;;;;;;;;;;12.80;67.90;;;8.35;100.00;95554.22;4968893;28;19915;-59
2023/11/20 03:10:55;;;;;;;;;;;12.80;67.90;;;8.30;100.00;95554.97;4972783;28;19913;-58
2023/11/20 03:13:23;;;;;;;;;;;12.80;67.90;;;8.25;100.00;95554.13;4971852;28;19961;-59
2023/11/20 03:15:50;;;;;;;;;;;12.70;67.90;;;8.22;100.00;95557.28;4972927;28;19909;-56
2023/11/20 03:18:16;;;;;;;;;;;12.70;68.00;;;8.17;100.00;95552.69;4958560;28;19910;-53
2023/11/20 03:20:42;;;;;;;;;;;12.60;68.00;;;8.14;100.00;95544.44;4972346;28;19909;-51
2023/11/20 03:23:08;;;;;;;;;;;12.60;68.10;;;8.10;100.00;95552.09;4972844;28;20280;-51
2023/11/20 03:25:34;;;;;;;;;;;12.60;68.10;;;8.05;100.00;95552.88;4969549;28;19996;-51
2023/11/20 03:27:59;;;;;;;;;;;12.50;68.10;;;8.03;100.00;95544.34;4972205;28;19949;-52
2023/11/20 03:30:27;;;;;;;;;;;12.60;68.20;;;8.00;100.00;95542.19;4969271;28;19914;-51
2023/11/20 03:32:53;;;;;;;;;;;12.50;68.20;;;7.98;100.00;95532.88;4972867;28;19931;-51
2023/11/20 03:35:19;;;;;;;;;;;12.50;68.30;;;7.96;100.00;95529.66;4972301;28;19914;-54
2023/11/20 03:37:44;;;;;;;;;;;12.50;68.40;;;7.92;100.00;95515.28;4964481;28;19914;-51
2023/11/20 03:40:12;;;;;;;;;;;12.40;68.40;;;7.88;100.00;95512.34;4972502;28;20324;-52
2023/11/20 03:42:38;;;;;;;;;;;12.40;68.50;;;7.87;100.00;95514.19;4970294;28;19910;-52
2023/11/20 03:45:04;;;;;;;;;;;12.40;68.60;;;7.89;100.00;95513.94;4972414;28;20293;-50
2023/11/20 03:47:30;;;;;;;;;;;12.40;68.70;;;7.89;100.00;95506.78;4970571;28;19964;-51
2023/11/20 03:49:55;;;;;;;;;;;12.40;68.80;;;7.94;100.00;95518.50;4971057;28;19957;-52
2023/11/20 03:52:21;;;;;;;;;;;12.40;68.90;;;7.95;100.00;95510.28;4972873;28;19909;-53
2023/11/20 03:54:47;;;;;;;;;;;12.40;68.90;;;8.00;100.00;95509.56;4970022;28;20296;-51
2023/11/20 03:57:13;;;;;;;;;;;12.40;68.90;;;8.00;100.00;95507.69;4972573;28;19917;-51
2023/11/20 03:59:38;;;;;;;;;;;12.40;68.90;;;8.02;100.00;95510.09;4969373;28;19917;-52
2023/11/20 04:02:04;;;;;;;;;;;12.40;68.90;;;8.03;100.00;95515.16;4972503;28;20440;-51
2023/11/20 04:04:30;;;;;;;;;;;12.50;68.90;;;8.04;100.00;95522.06;4972279;28;20004;-51
2023/11/20 04:06:57;;;;;;;;;;;12.40;68.90;;;8.05;100.00;95521.03;4965807;28;19929;-52
2023/11/20 04:09:22;;;;;;;;;;;12.40;68.80;;;8.04;100.00;95523.91;4970754;28;20329;-51
2023/11/20 04:11:48;;;;;;;;;;;12.40;68.80;;;8.00;100.00;95528.94;4970345;28;20004;-54
2023/11/20 04:14:14;;;;;;;;;;;12.40;68.70;;;7.97;100.00;95516.16;4972303;28;19971;-51
2023/11/20 04:16:40;;;;;;;;;;;12.40;68.80;;;7.94;100.00;95514.00;4969332;28;20008;-52
2023/11/20 04:19:06;;;;;;;;;;;12.40;68.70;;;7.89;100.00;95517.38;4969664;28;19952;-52
2023/11/20 04:21:31;;;;;;;;;;;12.40;68.70;;;7.88;100.00;95510.50;4971975;28;20427;-52
2023/11/20 04:23:58;;;;;;;;;;;12.40;68.70;;;7.85;100.00;95500.38;4970291;28;19960;-51
2023/11/20 04:26:24;;;;;;;;;;;12.30;68.70;;;7.86;100.00;95504.63;4971992;28;20368;-52
2023/11/20 04:28:50;;;;;;;;;;;12.40;68.80;;;7.92;100.00;95508.13;4972468;28;19910;-51
2023/11/20 04:31:16;;;;;;;;;;;12.30;68.90;;;7.95;100.00;95509.50;4973519;28;19909;-52
2023/11/20 04:33:43;;;;;;;;;;;12.30;68.90;;;7.94;100.00;95505.25;4975787;28;20025;-50
2023/11/20 04:36:12;;;;;;;;;;;12.40;68.90;;;7.95;100.00;95504.19;4952727;28;19914;-50
2023/11/20 04:38:38;;;;;;;;;;;12.30;68.80;;;7.95;100.00;95506.84;4964945;28;19960;-52
2023/11/20 04:41:08;;;;;;;;;;;12.30;68.80;;;7.95;100.00;95504.19;4975924;28;20387;-55
2023/11/20 04:43:34;;;;;;;;;;;12.40;68.90;;;7.99;100.00;95510.59;4973396;28;19909;-56
2023/11/20 04:46:00;;;;;;;;;;;12.40;68.90;;;8.02;100.00;95504.78;4975789;28;19909;-55
2023/11/20 04:48:26;;;;;;;;;;;12.40;68.90;;;8.06;100.00;95508.56;4973697;28;20317;-54
2023/11/20 04:50:52;;;;;;;;;;;12.40;68.90;;;8.07;100.00;95507.50;4975319;28;19921;-56
2023/11/20 04:53:20;;;;;;;;;;;12.40;68.80;;;8.09;100.00;95513.38;4975653;28;20035;-52
2023/11/20 04:55:46;;;;;;;;;;;12.40;68.90;;;8.09;100.00;95508.06;4971528;28;19910;-54
2023/11/20 04:58:12;;;;;;;;;;;12.40;68.70;;;8.07;100.00;95510.16;4975571;28;19916;-54
2023/11/20 05:00:39;;;;;;;;;;;12.50;68.80;;;8.06;100.00;95501.41;4972362;28;19987;-54
2023/11/20 05:03:05;;;;;;;;;;;12.50;68.70;;;8.05;100.00;95509.59;4975247;28;19914;-55
2023/11/20 05:05:31;;;;;;;;;;;12.50;68.70;;;8.02;100.00;95496.81;4973450;28;20174;-54
2023/11/20 05:07:56;;;;;;;;;;;12.50;68.70;;;8.02;100.00;95504.78;4962797;28;20451;-56
2023/11/20 05:10:22;;;;;;;;;;;12.50;68.60;;;8.04;100.00;95498.19;4975051;28;19921;-54
2023/11/20 05:12:49;;;;;;;;;;;12.50;68.60;;;8.01;100.00;95504.00;4972418;28;19910;-54
2023/11/20 05:15:15;;;;;;;;;;;12.50;68.60;;;8.01;100.00;95500.53;4975109;28;19910;-52
2023/11/20 05:17:40;;;;;;;;;;;12.50;68.60;;;8.03;100.00;95512.50;4972033;28;19936;-53
2023/11/20 05:20:07;;;;;;;;;;;12.50;68.60;;;8.02;100.00;95494.19;4974991;28;19920;-51
2023/11/20 05:22:34;;;;;;;;;;;12.50;68.60;;;8.03;100.00;95496.59;4975134;28;20281;-52
2023/11/20 05:25:00;;;;;;;;;;;12.50;68.60;;;8.06;100.00;95498.75;4972170;28;19917;-55
2023/11/20 05:27:25;;;;;;;;;;;12.50;68.60;;;8.03;100.00;95503.75;4974558;28;19916;-53
2023/11/20 05:29:52;;;;;;;;;;;12.50;68.60;;;8.02;100.00;95504.78;4971989;28;20304;-52
2023/11/20 05:32:17;;;;;;;;;;;12.40;68.50;;;8.02;100.00;95502.97;4974613;28;20000;-52
2023/11/20 05:34:43;;;;;;;;;;;12.50;68.60;;;8.05;100.00;95499.81;4974697;28;19910;-54
2023/11/20 05:37:09;;;;;;;;;;;12.50;68.50;;;8.04;100.00;95500.84;4968826;28;19914;-56
2023/11/20 05:39:35;;;;;;;;;;;12.50;68.60;;;8.06;100.00;95497.94;4973316;28;20364;-51
2023/11/20 05:42:01;;;;;;;;;;;12.50;68.50;;;8.06;100.00;95497.94;4965875;28;19910;-53
2023/11/20 05:44:27;;;;;;;;;;;12.50;68.50;;;8.04;100.00;95500.84;4969187;28;20040;-55
2023/11/20 05:46:52;;;;;;;;;;;12.50;68.40;;;8.00;100.00;95505.03;4974296;28;19910;-55
2023/11/20 05:49:18;;;;;;;;;;;12.50;69.20;;;8.00;100.00;95506.91;4972867;28;20014;-54
2023/11/20 05:51:44;;;;;;;;;;;12.50;68.40;;;8.05;100.00;95514.91;4964043;28;19913;-53
2023/11/20 05:54:10;;;;;;;;;;;12.50;68.40;;;8.06;100.00;95508.56;4972448;28;19910;-51
2023/11/20 05:56:36;;;;;;;;;;;12.50;68.40;;;8.03;100.00;95501.91;4974180;28;20036;-52
2023/11/20 05:59:03;;;;;;;;;;;12.50;68.40;;;8.01;100.00;95506.63;4974360;28;20009;-51
2023/11/20 06:01:38;;;;;;;;;;;12.40;68.30;;;8.00;100.00;95507.69;4972589;28;19910;-52
2023/11/20 06:04:05;;;;;;;;;;;12.40;68.30;;;8.04;100.00;95508.00;4974185;28;19910;-51
2023/11/20 06:06:31;;;;;;;;;;;12.50;68.40;;;8.01;100.00;95506.63;4972285;28;19918;-50
2023/11/20 06:08:58;;;;;;;;;;;12.40;68.30;;;7.98;100.00;95507.13;4969398;28;19920;-53
2023/11/20 06:11:24;;;;;;;;;;;12.40;68.30;;;7.95;100.00;95510.28;4973871;28;19910;-52
2023/11/20 06:13:51;;;;;;;;;;;12.40;68.20;;;7.94;100.00;95508.69;4972536;28;19917;-51
2023/11/20 06:16:17;;;;;;;;;;;12.40;68.30;;;7.98;100.00;95512.44;4956508;28;20411;-51
2023/11/20 06:18:43;;;;;;;;;;;12.40;68.30;;;7.96;100.00;95521.69;4972009;28;19910;-50
2023/11/20 06:21:09;;;;;;;;;;;12.40;68.30;;;7.95;100.00;95518.25;4974040;28;19914;-54
2023/11/20 06:23:35;;;;;;;;;;;12.40;68.30;;;7.95;100.00;95512.16;4973080;28;19964;-54
2023/11/20 06:26:02;;;;;;;;;;;12.40;68.40;;;7.93;100.00;95507.09;4972939;28;19963;-54
2023/11/20 06:28:28;;;;;;;;;;;12.40;68.30;;;7.95;100.00;95520.09;4973231;28;20380;-54
2023/11/20 06:30:54;;;;;;;;;;;12.40;68.30;;;7.91;100.00;95522.47;4972151;28;20040;-50
2023/11/20 06:33:21;;;;;;;;;;;12.30;68.30;;;7.89;100.00;95512.06;4973634;28;19964;-56
2023/11/20 06:35:47;;;;;;;;;;;12.30;68.30;;;7.87;100.00;95506.25;4971854;28;20388;-55
2023/11/20 06:38:13;;;;;;;;;;;12.30;68.30;;;7.86;100.00;95507.28;4971223;28;19913;-51
2023/11/20 06:40:42;;;;;;;;;;;12.30;68.40;;;7.83;100.00;95506.97;4962848;28;20003;-51
2023/11/20 06:43:08;;;;;;;;;;;12.30;68.30;;;7.81;100.00;95512.53;4962473;28;19917;-52
2023/11/20 06:45:35;;;;;;;;;;;12.30;68.30;;;7.76;100.00;95519.63;4968006;28;19910;-50
2023/11/20 06:48:01;;;;;;;;;;;12.30;68.30;;;7.76;100.00;95524.94;4957190;28;19981;-54
2023/11/20 06:50:28;;;;;;;;;;;12.30;68.30;;;7.76;100.00;95522.28;4966381;28;20009;-51
2023/11/20 06:52:56;;;;;;;;;;;12.30;68.40;;;7.74;100.00;95511.13;4963516;28;19949;-52
2023/11/20 06:55:23;;;;;;;;;;;12.30;68.30;;;7.74;100.00;95514.59;4971078;28;19910;-53
2023/11/20 06:57:49;;;;;;;;;;;12.30;68.40;;;7.72;100.00;95510.56;4966870;28;19924;-55
2023/11/20 07:00:16;;;;;;;;;;;12.30;68.30;;;7.74;100.00;95517.25;4965143;28;19910;-53
2023/11/20 07:02:42;;;;;;;;;;;12.30;68.40;;;7.79;100.00;95517.28;4973898;28;19921;-55
2023/11/20 07:05:14;;;;;;;;;;;12.30;68.40;;;7.78;100.00;95515.69;4966100;28;20276;-53
2023/11/20 07:07:50;;;;;;;;;;;12.30;68.40;;;7.77;100.00;95524.69;4963561;28;20012;-51
2023/11/20 07:10:22;;;;;;;;;;;12.40;68.40;;;7.79;100.00;95527.09;4948686;28;19929;-51
2023/11/20 07:12:48;;;;;;;;;;;12.40;68.40;;;7.78;100.00;95522.84;4969289;28;20003;-52
2023/11/20 07:15:14;;;;;;;;;;;12.40;68.40;;;7.79;100.00;95524.44;4968525;28;20012;-55
2023/11/20 07:17:40;;;;;;;;;;;12.40;68.30;;;7.81;100.00;95525.81;4981088;28;20467;-52
2023/11/20 07:20:07;;;;;;;;;;;12.40;68.30;;;7.84;100.00;95527.97;4957095;28;19910;-53
2023/11/20 07:22:35;;;;;;;;;;;12.50;68.40;;;7.86;100.00;95533.78;4970064;28;19995;-56
2023/11/20 07:25:01;;;;;;;;;;;12.50;68.50;;;7.89;100.00;95527.19;4972317;28;20381;-50
2023/11/20 07:27:27;;;;;;;;;;;12.50;68.30;;;7.93;100.00;95524.84;4959130;28;19921;-52
2023/11/20 07:29:52;;;;;;;;;;;12.50;68.20;;;7.94;100.00;95527.25;4962879;28;20167;-52
2023/11/20 07:32:18;;;;;;;;;;;12.60;68.30;;;8.03;100.00;95527.63;4969355;28;19909;-52
2023/11/20 07:34:44;;;;;;;;;;;12.60;68.20;;;8.05;100.00;95531.63;4968216;28;19932;-56
2023/11/20 07:37:10;;;;;;;;;;;12.70;68.30;;;8.08;100.00;95525.84;4956040;28;19936;-51
2023/11/20 07:39:36;;;;;;;;;;;12.70;68.10;;;8.10;100.00;95531.66;4964626;28;20379;-55
2023/11/20 07:42:01;;;;;;;;;;;12.80;68.10;;;8.15;100.00;95532.78;4967586;28;19925;-54
2023/11/20 07:44:27;;;;;;;;;;;12.80;68.00;;;8.16;100.00;95531.75;4967084;28;20000;-51
2023/11/20 07:46:53;;;;;;;;;;;12.80;67.90;;;8.20;100.00;95530.97;4972244;28;19909;-51
2023/11/20 07:49:19;;;;;;;;;;;12.90;68.00;;;8.22;100.00;95533.38;4971616;28;20373;-54
2023/11/20 07:51:45;;;;;;;;;;;12.90;67.80;;;8.24;100.00;95532.09;4972172;28;20000;-52
2023/11/20 07:54:12;;;;;;;;;;;13.00;67.70;;;8.28;100.00;95527.09;4971669;28;19960;-54
2023/11/20 07:56:38;;;;;;;;;;;13.10;67.60;;;8.30;100.00;95528.44;4971925;28;20008;-51
2023/11/20 07:59:04;;;;;;;;;;;13.10;67.50;;;8.35;100.00;95530.31;4972527;28;20064;-55
2023/11/20 08:01:30;;;;;;;;;;;13.20;67.50;;;8.42;100.00;95530.94;4970913;28;19909;-57
2023/11/20 08:03:55;;;;;;;;;;;13.30;67.40;;;8.43;100.00;95529.09;4974101;28;20088;-54
2023/11/20 08:06:21;;;;;;;;;;;13.30;67.30;;;8.50;100.00;95514.56;4974474;28;20277;-54
2023/11/20 08:08:48;;;;;;;;;;;13.40;67.20;;;8.53;100.00;95511.41;4976282;28;19920;-56
2023/11/20 08:11:14;;;;;;;;;;;13.40;67.10;;;8.58;100.00;95513.28;4976444;28;19941;-52
2023/11/20 08:13:40;;;;;;;;;;;13.50;67.10;;;8.63;100.00;95508.03;4971520;28;19916;-51
2023/11/20 08:16:08;;;;;;;;;;;13.50;67.10;;;8.64;99.60;95499.00;4976064;28;19909;-57
2023/11/20 08:18:36;;;;;;;;;;;13.60;66.90;;;8.65;99.90;95505.94;4975151;28;20276;-54
2023/11/20 08:21:02;;;;;;;;;;;13.60;66.90;;;8.71;99.26;95509.41;4976105;28;19960;-50
2023/11/20 08:23:28;;;;;;;;;;;13.70;66.70;;;8.79;99.17;95500.97;4975991;28;19910;-53
2023/11/20 08:25:54;;;;;;;;;;;13.80;66.60;;;8.83;99.46;95499.41;4975242;28;19910;-52
2023/11/20 08:28:20;;;;;;;;;;;13.90;66.50;;;8.90;98.94;95499.19;4975729;28;19971;-55
2023/11/20 08:30:45;;;;;;;;;;;14.00;66.40;;;8.97;98.47;95494.47;4975329;28;19913;-52
2023/11/20 08:33:11;;;;;;;;;;;14.00;66.40;;;9.00;97.42;95484.13;4976160;28;20391;-56
2023/11/20 08:35:37;;;;;;;;;;;14.10;66.20;;;9.04;97.69;95493.19;4975469;28;20372;-54
2023/11/20 08:38:03;;;;;;;;;;;14.10;66.10;;;9.02;97.38;95500.63;4975243;28;19917;-56
2023/11/20 08:40:29;;;;;;;;;;;14.20;66.00;;;9.05;97.15;95501.94;4975714;28;19910;-54
2023/11/20 08:42:55;;;;;;;;;;;14.20;65.80;;;9.13;97.51;95498.81;4973903;28;19964;-56
2023/11/20 08:45:21;;;;;;;;;;;14.30;65.80;;;9.15;96.97;95498.53;4972493;28;20357;-52
2023/11/20 08:47:47;;;;;;;;;;;14.30;65.60;;;9.11;95.94;95500.91;4962708;28;19940;-50
2023/11/20 08:50:14;;;;;;;;;;;14.40;65.50;;;9.22;96.51;95501.78;4975397;28;20375;-51
2023/11/20 08:52:40;;;;;;;;;;;14.40;65.40;;;9.30;95.34;95503.94;4975495;28;19918;-53
2023/11/20 08:55:07;;;;;;;;;;;14.50;65.30;;;9.39;95.38;95506.91;4974070;28;19928;-51
2023/11/20 08:57:35;;;;;;;;;;;14.60;65.20;;;9.48;94.31;95508.81;4975050;28;20020;-50
2023/11/20 09:00:04;;;;;;;;;;;14.70;65.10;;;9.60;94.19;95510.50;4974420;28;19917;-54
2023/11/20 09:02:30;;;;;;;;;;;14.80;65.00;;;9.71;93.92;95504.97;4975406;28;19917;-51
2023/11/20 09:04:56;;;;;;;;;;;15.00;65.00;;;9.83;92.42;95512.69;4975082;28;20291;-55
2023/11/20 09:07:22;;;;;;;;;;;15.20;64.90;;;9.95;91.68;95504.47;4971884;28;20005;-54
2023/11/20 09:09:48;;;;;;;;;;;15.30;64.70;;;10.12;91.15;95507.72;4975150;28;20291;-52
2023/11/20 09:12:14;;;;;;;;;;;15.50;64.60;;;10.22;89.58;95508.81;4974241;28;19933;-54
2023/11/20 09:14:40;;;;;;;;;;;15.70;64.40;;;10.34;87.91;95506.72;4970183;28;20269;-56
2023/11/20 09:17:06;;;;;;;;;;;15.90;64.30;;;10.45;87.13;95511.00;4975064;28;19964;-51
2023/11/20 09:19:32;;;;;;;;;;;16.10;64.00;;;10.79;88.32;95505.16;4974174;28;20452;-56
2023/11/20 09:21:58;;;;;;;;;;;16.60;63.70;;;11.09;86.76;95498.97;4974919;28;19914;-52
2023/11/20 09:24:25;;;;;;;;;;;16.90;63.60;;;11.20;85.53;95497.09;4974126;28;20008;-57
2023/11/20 09:26:51;;;;;;;;;;;17.20;63.90;;;11.24;82.54;95496.28;4974314;28;19963;-54
2023/11/20 09:29:17;;;;;;;;;;;17.50;62.40;;;11.46;82.96;95489.81;4975003;28;19914;-54
2023/11/20 09:31:46;;;;;;;;;;;17.70;61.80;;;11.61;81.15;95488.97;4973610;28;19909;-54
2023/11/20 09:34:12;;;;;;;;;;;18.00;61.30;;;11.84;81.44;95490.19;4974915;28;19972;-54
2023/11/20 09:36:38;;;;;;;;;;;18.20;61.00;;;11.88;78.91;95485.97;4973219;28;20356;-53
2023/11/20 09:39:04;;;;;;;;;;;18.40;60.70;;;11.99;78.92;95492.81;4974877;28;19909;-55
2023/11/20 09:41:42;;;;;;;;;;;18.40;60.40;;;11.89;79.36;95482.22;4974372;28;19909;-53
2023/11/20 09:44:11;;;;;;;;;;;18.40;60.20;;;12.04;80.49;95484.81;4957720;28;20280;-54
2023/11/20 09:46:40;;;;;;;;;;;18.30;60.10;;;12.02;79.65;95470.91;4974275;28;19949;-52
2023/11/20 09:49:08;;;;;;;;;;;18.20;60.10;;;11.85;78.28;95476.63;4956993;28;20257;-52
2023/11/20 09:51:36;;;;;;;;;;;18.10;60.00;;;11.76;78.72;95468.34;4974282;28;19909;-54
2023/11/20 09:54:08;;;;;;;;;;;18.00;59.80;;;11.39;80.79;95474.09;4969964;28;19910;-54
2023/11/20 09:56:36;;;;;;;;;;;17.90;59.30;;;11.46;81.63;95471.94;4972930;28;20242;-55
2023/11/20 09:59:03;;;;;;;;;;;17.70;59.20;;;11.51;81.11;95473.81;4974440;28;20004;-57
2023/11/20 10:01:30;;;;;;;;;;;17.70;59.30;;;11.42;79.11;95486.09;4973361;28;19909;-52
2023/11/20 10:03:59;;;;;;;;;;;17.70;59.40;;;11.46;80.96;95474.59;4974341;28;20004;-55
2023/11/20 10:06:30;;;;;;;;;;;17.70;59.40;;;11.49;80.70;95465.28;4972788;28;19917;-53
2023/11/20 10:08:57;;;;;;;;;;;17.70;59.40;;;11.44;81.09;95465.28;4958444;28;19916;-55
2023/11/20 10:11:23;;;;;;;;;;;17.70;59.30;;;11.60;81.62;95468.72;4956679;28;19996;-51
2023/11/20 10:13:49;;;;;;;;;;;17.80;59.30;;;11.75;80.50;95468.63;4968914;28;20005;-51
2023/11/20 10:16:23;;;;;;;;;;;17.90;59.40;;;11.75;79.91;95465.94;4973621;28;20016;-55
2023/11/20 10:18:51;;;;;;;;;;;18.10;59.40;;;11.86;77.64;95459.53;4971411;28;20317;-55
2023/11/20 10:21:20;;;;;;;;;;;18.40;59.20;;;12.04;78.01;95458.91;4978208;28;19917;-54
2023/11/20 10:23:50;;;;;;;;;;;18.80;58.70;;;12.37;78.17;95442.38;4968079;28;19914;-52
2023/11/20 10:26:17;;;;;;;;;;;19.00;58.60;;;12.49;77.71;95443.63;4956504;28;19916;-52
2023/11/20 10:28:45;;;;;;;;;;;19.10;58.40;;;12.56;74.60;95431.81;4973283;28;19909;-52
2023/11/20 10:31:10;;;;;;;;;;;19.30;58.30;;;12.77;75.77;95429.75;4972792;28;20339;-51
2023/11/20 10:33:36;;;;;;;;;;;19.50;58.00;;;12.83;74.11;95421.41;4973474;28;20012;-54
2023/11/20 10:36:13;;;;;;;;;;;19.80;57.70;;;12.92;72.78;95421.59;4955640;28;19913;-53
2023/11/20 10:38:41;;;;;;;;;;;20.10;57.50;;;12.92;72.51;95417.03;4973644;28;19976;-55
2023/11/20 10:41:13;;;;;;;;;;;20.40;57.00;;;13.26;71.60;95415.41;4956505;28;19956;-54
2023/11/20 10:43:40;;;;;;;;;;;20.70;56.70;;;13.37;69.69;95417.66;4967379;28;19910;-53
2023/11/20 10:46:06;;;;;;;;;;;21.10;56.10;;;13.79;71.07;95407.25;4973122;28;19917;-52
2023/11/20 10:48:37;;;;;;;;;;;21.40;56.00;;;14.10;68.86;95407.56;4972641;28;20284;-54
2023/11/20 10:51:12;;;;;;;;;;;21.90;56.00;;;14.42;65.84;95408.72;4973119;28;19914;-52
2023/11/20 10:53:40;;;;;;;;;;;22.10;55.90;;;14.43;67.58;95404.94;4973162;28;19964;-53
2023/11/20 10:56:13;;;;;;;;;;;22.20;55.30;;;14.25;65.43;95407.34;4972969;28;20004;-52
2023/11/20 10:58:43;;;;;;;;;;;22.10;55.20;;;13.99;66.00;95404.25;4972755;28;19921;-53
2023/11/20 11:01:09;;;;;;;;;;;21.80;55.00;;;13.78;66.33;95395.72;4971819;28;19910;-50
2023/11/20 11:03:36;;;;;;;;;;;21.50;54.70;;;13.51;67.25;95392.88;4956041;28;19960;-53
2023/11/20 11:06:09;;;;;;;;;;;21.20;54.20;;;13.38;67.32;95399.72;4969027;28;19926;-51
2023/11/20 11:08:37;;;;;;;;;;;20.90;54.20;;;13.23;67.59;95391.88;4949163;28;19910;-50
2023/11/20 11:11:04;;;;;;;;;;;20.60;54.10;;;13.15;69.32;95383.38;4953482;28;19913;-50
2023/11/20 11:13:34;;;;;;;;;;;20.60;53.90;;;13.47;69.22;95375.78;4948728;28;19911;-53
2023/11/20 11:16:03;;;;;;;;;;;20.70;54.10;;;13.65;67.89;95378.50;4958834;28;19909;-53
2023/11/20 11:18:31;;;;;;;;;;;20.90;54.30;;;13.81;68.26;95378.28;4948246;28;19917;-51